Accueil
METAR-TAF:

METAR-TAF

Aéroports :

Chevak, Alaska, États-Unis

latitude: 61-32-27N, longitude: 165-36-03W, altitude: 23 m

Observation

Le bulletin a été fait il y a 1 heure et 28 minutes, à 04:56 UTC
Vent 22 kt de sud-est
Température 1°C
Humidité 93%
Pression 975 hPa
Visibilité: 16.1 km
Quelques nuages à une hauteur de 1800 ft
Nuages fragmentés à une hauteur de 2700 ft
Ciel couvert à une hauteur de 4400 ft

METAR: PAVA 080456Z AUTO 14022KT 10SM FEW018 BKN027 OVC044 01/00 A2878 RMK AO2 PK WND 13030/0400 RAB0358E15 SLP831 T00110000 FZRANO PNO $

Heure: 21:24 (06:24 UTC)


TAF: absent

Observations et prévisions météorologiques de plus de 4000 aéroports (messages METAR et TAF).

Les stations disponibles sont représentées par des disques jaunes et rouges sur la carte.

Passer la souris dessus pour voir le nom de la station.

Cliquer dessus pour voir les observations et prévisions météorologiques.

Pour changer de carte: cliquez sur les boutons verts avec une croix noire pour zoomer, sur le bouton vert avec un tiret pour effectuer un zoom arrière, ou sur les flèches vertes pour les cartes adjacentes.


METAR-TAF: